createdAt,value
2023-03-05T00:01:27.995Z,34.00
2023-03-05T00:03:57.314Z,33.90
2023-03-05T00:06:28.073Z,33.90
2023-03-05T00:08:58.561Z,33.90
2023-03-05T00:11:30.331Z,33.90
2023-03-05T00:13:59.623Z,33.90
2023-03-05T00:16:28.976Z,33.90
2023-03-05T00:18:59.135Z,33.90
2023-03-05T00:21:31.313Z,33.90
2023-03-05T00:24:03.792Z,33.90
2023-03-05T00:26:34.676Z,33.90
2023-03-05T00:29:02.686Z,33.90
2023-03-05T00:31:34.427Z,33.90
2023-03-05T00:34:08.107Z,33.90
2023-03-05T00:36:39.193Z,33.90
2023-03-05T00:39:08.481Z,33.90
2023-03-05T00:41:36.310Z,33.90
2023-03-05T00:44:04.462Z,33.90
2023-03-05T00:46:33.031Z,33.90
2023-03-05T00:49:01.017Z,33.90
2023-03-05T00:51:29.164Z,33.90
2023-03-05T00:53:57.062Z,33.80
2023-03-05T00:56:25.008Z,33.90
2023-03-05T00:58:53.554Z,33.80
2023-03-05T01:01:21.636Z,33.90
2023-03-05T01:03:49.441Z,33.80
2023-03-05T01:06:17.540Z,33.90
2023-03-05T01:08:46.177Z,33.80
2023-03-05T01:11:14.995Z,33.80
2023-03-05T01:13:42.759Z,33.80
2023-03-05T01:16:10.796Z,33.90
2023-03-05T01:18:40.337Z,33.90
2023-03-05T01:21:08.693Z,33.80
2023-03-05T01:23:37.623Z,33.80
2023-03-05T01:26:06.604Z,33.80
2023-03-05T01:28:35.372Z,33.80
2023-03-05T01:31:06.646Z,33.80
2023-03-05T01:33:34.452Z,33.80
2023-03-05T01:36:02.332Z,33.80
2023-03-05T01:38:30.104Z,33.80
2023-03-05T01:40:57.984Z,33.80
2023-03-05T01:43:28.677Z,33.80
2023-03-05T01:46:27.674Z,33.80
2023-03-05T01:49:12.970Z,33.80
2023-03-05T01:52:07.555Z,33.80
2023-03-05T01:55:00.130Z,33.80
2023-03-05T01:57:38.313Z,33.80
2023-03-05T02:00:17.001Z,33.80
2023-03-05T02:02:47.409Z,33.80
2023-03-05T02:05:29.172Z,33.80
2023-03-05T02:07:59.091Z,33.80
2023-03-05T02:10:31.076Z,33.70
2023-03-05T02:13:02.579Z,33.80
2023-03-05T02:15:31.180Z,33.80
2023-03-05T02:17:59.430Z,33.80
2023-03-05T02:20:30.462Z,33.80
2023-03-05T02:22:58.460Z,33.80
2023-03-05T02:25:28.694Z,33.80
2023-03-05T02:28:05.384Z,33.80
2023-03-05T02:30:33.642Z,33.80
2023-03-05T02:33:01.666Z,33.80
2023-03-05T02:35:29.663Z,33.80
2023-03-05T02:37:58.323Z,33.70
2023-03-05T02:40:26.229Z,33.80
2023-03-05T02:42:54.163Z,33.80
2023-03-05T02:45:22.321Z,33.80
2023-03-05T02:47:50.089Z,33.80
2023-03-05T02:50:18.032Z,33.70
2023-03-05T02:52:45.960Z,33.70
2023-03-05T02:55:15.894Z,33.70
2023-03-05T02:57:45.387Z,33.70
2023-03-05T03:00:13.788Z,33.70
2023-03-05T03:02:41.589Z,33.70
2023-03-05T03:05:10.074Z,33.80
2023-03-05T03:07:38.178Z,33.70
2023-03-05T03:10:06.847Z,33.70
2023-03-05T03:12:41.821Z,33.70
2023-03-05T03:15:11.442Z,33.70
2023-03-05T03:17:39.475Z,33.70
2023-03-05T03:20:11.088Z,33.70
2023-03-05T03:22:38.879Z,33.70
2023-03-05T03:25:07.442Z,33.70
2023-03-05T03:27:35.243Z,33.70
2023-03-05T03:30:05.045Z,33.70
2023-03-05T03:32:33.895Z,33.70
2023-03-05T03:35:02.638Z,33.70
2023-03-05T03:37:30.817Z,33.70
2023-03-05T03:39:58.546Z,33.70
2023-03-05T03:42:26.468Z,33.70
2023-03-05T03:44:54.762Z,33.70
2023-03-05T03:47:22.595Z,33.60
2023-03-05T03:49:53.676Z,33.60
2023-03-05T03:52:23.073Z,33.70
2023-03-05T03:54:53.214Z,33.60
2023-03-05T03:57:21.323Z,33.70
2023-03-05T03:59:50.560Z,33.70
2023-03-05T04:02:18.777Z,33.70
2023-03-05T04:04:46.611Z,33.70
2023-03-05T04:07:14.484Z,33.70
2023-03-05T04:09:42.209Z,33.70
2023-03-05T04:12:10.293Z,33.60
2023-03-05T04:14:38.692Z,33.60
2023-03-05T04:17:06.526Z,33.70
2023-03-05T04:19:34.616Z,33.70
2023-03-05T04:22:02.512Z,33.70
2023-03-05T04:24:30.260Z,33.60
2023-03-05T04:26:58.147Z,33.70
2023-03-05T04:29:26.262Z,33.60
2023-03-05T04:31:56.337Z,33.60
2023-03-05T04:34:24.590Z,33.60
2023-03-05T04:36:52.430Z,33.60
2023-03-05T04:39:21.185Z,33.60
2023-03-05T04:41:48.989Z,33.60
2023-03-05T04:44:17.975Z,33.60
2023-03-05T04:46:46.273Z,33.60
2023-03-05T04:49:14.175Z,33.60
2023-03-05T04:51:42.294Z,33.60
2023-03-05T04:54:10.162Z,33.60
2023-03-05T04:56:37.943Z,33.60
2023-03-05T04:59:05.792Z,33.60
2023-03-05T05:01:35.533Z,33.60
2023-03-05T05:04:03.413Z,33.60
2023-03-05T05:06:31.416Z,33.60
2023-03-05T05:08:59.250Z,33.60
2023-03-05T05:11:27.137Z,33.60
2023-03-05T05:13:54.995Z,33.60
2023-03-05T05:16:22.896Z,33.60
2023-03-05T05:18:50.663Z,33.60
2023-03-05T05:21:22.981Z,33.60
2023-03-05T05:23:50.854Z,33.60
2023-03-05T05:26:18.713Z,33.60
2023-03-05T05:28:46.599Z,33.60
2023-03-05T05:31:15.938Z,33.50
2023-03-05T05:33:43.872Z,33.60
2023-03-05T05:36:15.012Z,33.50
2023-03-05T05:38:43.000Z,33.50
2023-03-05T05:41:13.720Z,33.50
2023-03-05T05:43:42.203Z,33.50
2023-03-05T05:46:14.879Z,33.50
2023-03-05T05:48:44.208Z,33.50
2023-03-05T05:51:23.195Z,33.50
2023-03-05T05:53:51.117Z,33.50
2023-03-05T05:56:20.112Z,33.50
2023-03-05T05:58:48.889Z,33.50
2023-03-05T06:01:37.141Z,33.50
2023-03-05T06:04:05.017Z,33.50
2023-03-05T06:06:35.135Z,33.50
2023-03-05T06:09:03.769Z,33.50
2023-03-05T06:11:32.298Z,33.50
2023-03-05T06:14:02.778Z,33.50
2023-03-05T06:16:30.967Z,33.50
2023-03-05T06:18:59.139Z,33.50
2023-03-05T06:21:26.891Z,33.50
2023-03-05T06:23:55.068Z,33.50
2023-03-05T06:26:23.209Z,33.50
2023-03-05T06:28:52.149Z,33.50
2023-03-05T06:31:22.942Z,33.50
2023-03-05T06:33:51.042Z,33.50
2023-03-05T06:36:21.171Z,33.50
2023-03-05T06:38:51.546Z,33.40
2023-03-05T06:41:23.391Z,33.50
2023-03-05T06:43:51.137Z,33.50
2023-03-05T06:46:25.028Z,33.50
2023-03-05T06:48:57.136Z,33.50
2023-03-05T06:51:30.461Z,33.40
2023-03-05T06:54:01.982Z,33.40
2023-03-05T06:56:30.041Z,33.40
2023-03-05T06:58:58.200Z,33.40
2023-03-05T07:01:26.314Z,33.50
2023-03-05T07:03:55.710Z,33.50
2023-03-05T07:06:23.645Z,33.40
2023-03-05T07:08:51.368Z,33.50
2023-03-05T07:11:21.011Z,33.40
2023-03-05T07:13:49.817Z,33.40
2023-03-05T07:16:24.119Z,33.40
2023-03-05T07:18:52.616Z,33.50
2023-03-05T07:21:25.720Z,33.40
2023-03-05T07:23:54.846Z,33.50
2023-03-05T07:26:23.517Z,33.50
2023-03-05T07:28:51.682Z,33.40
2023-03-05T07:31:22.722Z,33.50
2023-03-05T07:33:51.040Z,33.40
2023-03-05T07:36:19.308Z,33.40
2023-03-05T07:38:47.237Z,33.40
2023-03-05T07:41:19.933Z,33.40
2023-03-05T07:43:50.200Z,33.40
2023-03-05T07:46:20.449Z,33.50
2023-03-05T07:48:48.630Z,33.50
2023-03-05T07:51:20.129Z,33.50
2023-03-05T07:53:49.996Z,33.50
2023-03-05T07:56:32.154Z,33.50
2023-03-05T07:59:01.451Z,33.50
2023-03-05T08:01:31.988Z,33.50
2023-03-05T08:03:59.904Z,33.50
2023-03-05T08:06:28.238Z,33.50
2023-03-05T08:08:56.211Z,33.40
2023-03-05T08:11:24.345Z,33.40
2023-03-05T08:13:52.138Z,33.50
2023-03-05T08:16:21.835Z,33.50
2023-03-05T08:18:49.814Z,33.50
2023-03-05T08:21:18.698Z,33.50
2023-03-05T08:23:47.346Z,33.40
2023-03-05T08:26:18.078Z,33.50
2023-03-05T08:28:46.598Z,33.50
2023-03-05T08:31:16.825Z,33.50
2023-03-05T08:33:45.434Z,33.40
2023-03-05T08:36:13.557Z,33.50
2023-03-05T08:38:42.202Z,33.50
2023-03-05T08:41:10.604Z,33.50
2023-03-05T08:43:39.481Z,33.50
2023-03-05T08:46:07.945Z,33.50
2023-03-05T08:48:35.826Z,33.50
2023-03-05T08:51:15.694Z,33.50
2023-03-05T08:53:45.183Z,33.60
2023-03-05T08:56:14.747Z,33.50
2023-03-05T08:58:42.806Z,33.50
2023-03-05T09:01:11.349Z,33.50
2023-03-05T09:03:40.312Z,33.50
2023-03-05T09:06:10.434Z,33.50
2023-03-05T09:08:38.646Z,33.50
2023-03-05T09:11:09.082Z,33.60
2023-03-05T09:13:36.962Z,33.60
2023-03-05T09:16:07.589Z,33.60
2023-03-05T09:18:36.976Z,33.50
2023-03-05T09:21:07.342Z,33.50
2023-03-05T09:23:35.545Z,33.60
2023-03-05T09:26:06.613Z,33.50
2023-03-05T09:28:34.887Z,33.50
2023-03-05T09:31:05.170Z,33.60
2023-03-05T09:33:35.000Z,33.60
2023-03-05T09:36:03.720Z,33.60
2023-03-05T09:38:32.257Z,33.60
2023-03-05T09:41:08.090Z,33.60
2023-03-05T09:43:52.764Z,33.60
2023-03-05T09:46:36.841Z,33.70
2023-03-05T09:49:10.942Z,33.60
2023-03-05T09:51:42.239Z,33.70
2023-03-05T09:54:19.031Z,33.70
2023-03-05T09:56:51.515Z,33.70
2023-03-05T09:59:28.788Z,33.70
2023-03-05T10:02:03.978Z,33.60
2023-03-05T10:04:50.441Z,33.70
2023-03-05T10:07:43.788Z,33.70
2023-03-05T10:10:18.488Z,33.70
2023-03-05T10:12:51.323Z,33.70
2023-03-05T10:15:51.801Z,33.70
2023-03-05T10:18:26.126Z,33.70
2023-03-05T10:21:25.882Z,33.80
2023-03-05T10:24:41.885Z,33.70
2023-03-05T10:27:19.927Z,33.70
2023-03-05T10:29:53.965Z,33.70
2023-03-05T10:32:52.030Z,33.80
2023-03-05T10:35:21.286Z,33.80
2023-03-05T10:38:15.530Z,33.70
2023-03-05T10:40:54.774Z,33.80
2023-03-05T10:43:31.962Z,33.80
2023-03-05T10:46:03.215Z,33.80
2023-03-05T10:48:46.772Z,33.80
2023-03-05T10:51:48.211Z,33.80
2023-03-05T10:54:31.096Z,33.80
2023-03-05T10:57:19.997Z,33.80
2023-03-05T10:59:54.294Z,33.80
2023-03-05T11:02:23.731Z,33.80
2023-03-05T11:04:53.027Z,33.90
2023-03-05T11:07:22.889Z,33.80
2023-03-05T11:10:17.063Z,33.80
2023-03-05T11:12:45.856Z,33.90
2023-03-05T11:15:14.204Z,33.90
2023-03-05T11:18:19.807Z,33.90
2023-03-05T11:20:48.836Z,33.90
2023-03-05T11:23:24.613Z,33.90
2023-03-05T11:25:59.155Z,33.90
2023-03-05T11:28:33.438Z,34.00
2023-03-05T11:31:16.350Z,34.00
2023-03-05T11:34:01.404Z,34.00
2023-03-05T11:36:42.212Z,33.90
2023-03-05T11:39:16.550Z,34.00
2023-03-05T11:41:53.367Z,34.00
2023-03-05T11:44:34.567Z,34.00
2023-03-05T11:47:40.842Z,34.00
2023-03-05T11:50:25.810Z,34.00
2023-03-05T11:53:12.389Z,34.10
2023-03-05T11:55:51.168Z,34.00
2023-03-05T11:58:42.390Z,34.00
2023-03-05T12:01:21.504Z,34.00
2023-03-05T12:03:51.364Z,34.00
2023-03-05T12:06:42.390Z,34.10
2023-03-05T12:09:18.912Z,34.00
2023-03-05T12:11:51.849Z,34.00
2023-03-05T12:14:25.993Z,34.10
2023-03-05T12:17:28.316Z,34.10
2023-03-05T12:20:06.574Z,34.10
2023-03-05T12:22:38.633Z,34.10
2023-03-05T12:25:31.646Z,34.10
2023-03-05T12:28:01.245Z,34.10
2023-03-05T12:30:35.754Z,34.10
2023-03-05T12:33:05.809Z,34.10
2023-03-05T12:35:37.492Z,34.10
2023-03-05T12:38:29.096Z,34.20
2023-03-05T12:41:27.494Z,34.20
2023-03-05T12:44:08.053Z,34.20
2023-03-05T12:46:39.997Z,34.10
2023-03-05T12:49:28.311Z,34.20
2023-03-05T12:52:01.726Z,34.20
2023-03-05T12:54:40.129Z,34.20
2023-03-05T12:57:27.009Z,34.20
2023-03-05T13:00:05.817Z,34.10
2023-03-05T13:02:49.097Z,34.20
2023-03-05T13:05:33.663Z,34.20
2023-03-05T13:08:23.636Z,34.10
2023-03-05T13:11:01.904Z,34.20
2023-03-05T13:13:52.285Z,34.10
2023-03-05T13:16:27.283Z,34.10
2023-03-05T13:19:01.724Z,34.10
2023-03-05T13:21:32.359Z,34.10
2023-03-05T13:24:03.477Z,34.20
2023-03-05T13:26:40.124Z,34.20
2023-03-05T13:29:15.968Z,34.20
2023-03-05T13:31:52.342Z,34.10
2023-03-05T13:34:44.623Z,34.20
2023-03-05T13:37:23.081Z,34.10
2023-03-05T13:39:52.842Z,34.30
2023-03-05T13:42:32.700Z,34.10
2023-03-05T13:45:04.129Z,34.10
2023-03-05T13:47:34.997Z,34.10
2023-03-05T13:50:09.153Z,34.10
2023-03-05T13:52:39.234Z,34.20
2023-03-05T13:55:16.975Z,34.10
2023-03-05T13:57:50.214Z,34.00
2023-03-05T14:00:39.395Z,34.10
2023-03-05T14:03:21.246Z,34.10
2023-03-05T14:05:53.073Z,34.10
2023-03-05T14:08:25.075Z,34.20
2023-03-05T14:10:57.812Z,34.10
2023-03-05T14:13:28.139Z,34.10
2023-03-05T14:16:13.138Z,34.10
2023-03-05T14:18:54.997Z,34.10
2023-03-05T14:21:23.716Z,34.10
2023-03-05T14:23:55.356Z,34.10
2023-03-05T14:26:29.315Z,34.10
2023-03-05T14:29:02.915Z,34.10
2023-03-05T14:31:37.075Z,34.10
2023-03-05T14:34:07.715Z,34.10
2023-03-05T14:36:36.596Z,34.00
2023-03-05T14:39:05.716Z,34.10
2023-03-05T14:41:43.327Z,34.10
2023-03-05T14:44:19.884Z,34.10
2023-03-05T14:46:51.664Z,34.00
2023-03-05T14:49:20.210Z,34.00
2023-03-05T14:51:48.521Z,34.00
2023-03-05T14:54:26.448Z,34.10
2023-03-05T14:56:54.761Z,34.00
2023-03-05T14:59:23.005Z,34.10
2023-03-05T15:01:51.438Z,34.10
2023-03-05T15:04:20.412Z,34.10
2023-03-05T15:06:51.482Z,34.00
2023-03-05T15:09:21.472Z,34.10
2023-03-05T15:11:49.975Z,34.10
2023-03-05T15:14:18.357Z,34.00
2023-03-05T15:21:18.677Z,34.00
2023-03-05T15:23:46.917Z,34.10
2023-03-05T15:26:16.275Z,34.10
2023-03-05T15:28:44.757Z,34.10
2023-03-05T15:31:13.144Z,34.10
2023-03-05T15:33:42.116Z,34.10
2023-03-05T15:36:10.600Z,34.10
2023-03-05T15:38:39.261Z,34.10
2023-03-05T15:41:07.968Z,34.00
2023-03-05T15:43:37.888Z,34.10
2023-03-05T15:46:07.471Z,34.10
2023-03-05T15:48:35.718Z,34.10
2023-03-05T15:51:07.564Z,34.10
2023-03-05T15:53:36.276Z,34.00
2023-03-05T15:56:04.598Z,34.10
2023-03-05T15:58:32.996Z,34.00
2023-03-05T16:01:01.169Z,34.00
2023-03-05T16:03:29.444Z,34.00
2023-03-05T16:05:57.885Z,34.00
2023-03-05T16:08:26.137Z,34.00
2023-03-05T16:10:54.447Z,34.00
2023-03-05T16:13:23.247Z,34.00
2023-03-05T16:15:54.018Z,34.00
2023-03-05T16:18:23.725Z,34.00
2023-03-05T16:20:52.935Z,34.00
2023-03-05T16:23:22.682Z,34.00
2023-03-05T16:25:51.323Z,34.00
2023-03-05T16:28:19.642Z,34.00
2023-03-05T16:30:57.651Z,34.00
2023-03-05T16:33:26.282Z,34.00
2023-03-05T16:36:23.163Z,34.00
2023-03-05T16:38:53.644Z,34.00
2023-03-05T16:41:24.403Z,34.00
2023-03-05T16:43:56.603Z,33.90
2023-03-05T16:46:29.407Z,34.00
2023-03-05T16:48:58.923Z,34.00
2023-03-05T16:51:27.340Z,34.00
2023-03-05T16:53:56.016Z,34.00
2023-03-05T16:56:24.551Z,34.00
2023-03-05T16:58:55.963Z,34.00
2023-03-05T17:01:24.828Z,34.00
2023-03-05T17:03:54.077Z,34.00
2023-03-05T17:06:25.561Z,33.90
2023-03-05T17:08:55.005Z,34.00
2023-03-05T17:11:23.345Z,34.00
2023-03-05T17:13:52.052Z,34.00
2023-03-05T17:16:20.606Z,33.90
2023-03-05T17:18:49.411Z,34.00
2023-03-05T17:21:17.728Z,33.90
2023-03-05T17:23:45.964Z,34.00
2023-03-05T17:26:18.064Z,34.00
2023-03-05T17:28:47.321Z,34.00
2023-03-05T17:31:15.955Z,33.90
2023-03-05T17:33:44.522Z,34.00
2023-03-05T17:36:18.612Z,33.90
2023-03-05T17:38:48.122Z,33.90
2023-03-05T17:41:19.081Z,33.90
2023-03-05T17:43:47.880Z,33.90
2023-03-05T17:46:17.163Z,33.90
2023-03-05T17:48:45.740Z,33.90
2023-03-05T17:51:16.926Z,33.90
2023-03-05T17:53:45.639Z,33.90
2023-03-05T17:56:20.599Z,33.90
2023-03-05T17:58:50.126Z,33.90
2023-03-05T18:01:26.380Z,33.90
2023-03-05T18:03:55.423Z,33.90
2023-03-05T18:06:24.362Z,33.90
2023-03-05T18:08:52.926Z,33.90
2023-03-05T18:11:21.810Z,33.90
2023-03-05T18:13:50.374Z,33.90
2023-03-05T18:16:18.802Z,33.90
2023-03-05T18:18:47.001Z,33.90
2023-03-05T18:21:21.098Z,33.90
2023-03-05T18:23:50.281Z,33.80
2023-03-05T18:26:18.781Z,33.90
2023-03-05T18:28:47.400Z,33.80
2023-03-05T18:31:15.679Z,33.90
2023-03-05T18:33:44.279Z,33.90
2023-03-05T18:36:12.840Z,33.90
2023-03-05T18:38:41.197Z,33.80
2023-03-05T18:41:09.799Z,33.90
2023-03-05T18:43:38.610Z,33.80
2023-03-05T18:46:08.499Z,33.90
2023-03-05T18:48:36.841Z,33.90
2023-03-05T18:51:05.637Z,33.80
2023-03-05T18:53:34.040Z,33.80
2023-03-05T18:56:02.517Z,33.80
2023-03-05T18:58:30.758Z,33.80
2023-03-05T19:00:58.862Z,33.90
2023-03-05T19:03:26.755Z,33.90
2023-03-05T19:05:55.022Z,33.80
2023-03-05T19:08:23.081Z,33.80
2023-03-05T19:10:51.815Z,33.80
2023-03-05T19:13:40.199Z,33.80
2023-03-05T19:16:22.213Z,33.70
2023-03-05T19:19:05.740Z,33.80
2023-03-05T19:21:34.146Z,33.70
2023-03-05T19:24:02.543Z,33.80
2023-03-05T19:26:30.933Z,33.70
2023-03-05T19:28:59.334Z,33.70
2023-03-05T19:31:27.605Z,33.70
2023-03-05T19:33:56.303Z,33.70
2023-03-05T19:36:24.777Z,33.70
2023-03-05T19:38:53.010Z,33.80
2023-03-05T19:41:21.842Z,33.70
2023-03-05T19:43:50.445Z,33.70
2023-03-05T19:46:19.057Z,33.70
2023-03-05T19:48:47.671Z,33.70
2023-03-05T19:51:19.495Z,33.70
2023-03-05T19:53:48.197Z,33.70
2023-03-05T19:56:17.264Z,33.70
2023-03-05T19:58:46.706Z,33.60
2023-03-05T20:01:18.326Z,33.70
2023-03-05T20:03:54.515Z,33.60
2023-03-05T20:06:24.676Z,33.60
2023-03-05T20:08:53.148Z,33.60
2023-03-05T20:11:22.590Z,33.70
2023-03-05T20:13:51.142Z,33.70
2023-03-05T20:16:22.147Z,33.70
2023-03-05T20:18:55.019Z,33.60
2023-03-05T20:21:25.723Z,33.60
2023-03-05T20:23:56.842Z,33.60
2023-03-05T20:26:27.012Z,33.60
2023-03-05T20:28:57.318Z,33.60
2023-03-05T20:31:27.287Z,33.60
2023-03-05T20:33:56.780Z,33.70
2023-03-05T20:36:25.126Z,33.70
2023-03-05T20:38:53.027Z,33.70
2023-03-05T20:41:21.213Z,33.60
2023-03-05T20:43:51.330Z,33.60
2023-03-05T20:46:24.149Z,33.60
2023-03-05T20:48:54.771Z,33.60
2023-03-05T20:51:29.522Z,33.60
2023-03-05T20:54:04.139Z,33.60
2023-03-05T20:56:33.991Z,33.60
2023-03-05T20:59:04.780Z,33.70
2023-03-05T21:01:35.106Z,33.60
2023-03-05T21:04:04.062Z,33.60
2023-03-05T21:06:32.700Z,33.70
2023-03-05T21:09:01.072Z,33.60
2023-03-05T21:11:28.917Z,33.60
2023-03-05T21:13:56.788Z,33.60
2023-03-05T21:16:27.948Z,33.60
2023-03-05T21:18:57.406Z,33.70
2023-03-05T21:21:25.768Z,33.60
2023-03-05T21:23:53.725Z,33.50
2023-03-05T21:26:22.113Z,33.60
2023-03-05T21:28:49.951Z,33.60
2023-03-05T21:31:22.520Z,33.50
2023-03-05T21:33:50.401Z,33.50
2023-03-05T21:36:19.033Z,33.60
2023-03-05T21:38:48.151Z,33.60
2023-03-05T21:41:18.352Z,33.60
2023-03-05T21:43:46.434Z,33.50
2023-03-05T21:46:14.531Z,33.60
2023-03-05T21:48:42.348Z,33.60
2023-03-05T21:51:12.840Z,33.60
2023-03-05T21:53:43.626Z,33.60
2023-03-05T21:56:18.136Z,33.70
2023-03-05T21:58:47.269Z,33.60
2023-03-05T22:01:16.361Z,33.60
2023-03-05T22:03:44.666Z,33.60
2023-03-05T22:06:14.541Z,33.60
2023-03-05T22:08:43.032Z,33.50
2023-03-05T22:11:17.166Z,33.50
2023-03-05T22:13:45.202Z,33.50
2023-03-05T22:16:22.171Z,33.60
2023-03-05T22:18:50.143Z,33.60
2023-03-05T22:21:25.328Z,33.60
2023-03-05T22:23:54.479Z,33.50
2023-03-05T22:26:23.172Z,33.50
2023-03-05T22:28:50.992Z,33.60
2023-03-05T22:31:26.142Z,33.60
2023-03-05T22:33:54.030Z,33.50
2023-03-05T22:36:22.200Z,33.50
2023-03-05T22:38:50.076Z,33.50
2023-03-05T22:41:22.716Z,33.60
2023-03-05T22:43:51.182Z,33.60
2023-03-05T22:46:24.576Z,33.50
2023-03-05T22:48:53.190Z,33.50
2023-03-05T22:51:21.174Z,33.50
2023-03-05T22:53:49.249Z,33.60
2023-03-05T22:56:19.418Z,33.50
2023-03-05T22:58:47.688Z,33.50
2023-03-05T23:01:21.335Z,33.50
2023-03-05T23:03:55.081Z,33.50
2023-03-05T23:06:25.475Z,33.50
2023-03-05T23:08:53.308Z,33.50
2023-03-05T23:11:21.489Z,33.50
2023-03-05T23:13:49.240Z,33.50
2023-03-05T23:16:17.074Z,33.50
2023-03-05T23:18:44.778Z,33.50
2023-03-05T23:21:12.615Z,33.50
2023-03-05T23:23:40.467Z,33.60
2023-03-05T23:26:08.339Z,33.50
2023-03-05T23:28:36.054Z,33.50
2023-03-05T23:31:04.456Z,33.50
2023-03-05T23:33:32.348Z,33.50
2023-03-05T23:36:01.122Z,33.50
2023-03-05T23:38:30.584Z,33.50
2023-03-05T23:41:01.449Z,33.60
2023-03-05T23:43:30.513Z,33.50
2023-03-05T23:46:00.522Z,33.50
2023-03-05T23:48:30.073Z,33.50
2023-03-05T23:50:57.972Z,33.50
2023-03-05T23:53:29.331Z,33.50
2023-03-05T23:55:57.335Z,33.50
2023-03-05T23:58:25.509Z,33.50
